Аэропорт: Нариманово. Астрахань

ICAO: URWA

METAR:
2024-04-22 22:30:00
URWA 222230Z 31006MPS CAVOK 15/07 Q1017 R27/010070 NOSIG RMK QFE764/1019
TAF:
2024-04-22 19:58:00
TAF URWA 221958Z 2221/2306 31005G12MPS 9999 SCT030CB 
  PROB40 
  TEMPO 2221/2224 3000 -TSRA FEW007 BKN020CB